Clarity — V7NN7 — position and weather

sailwx.info

Track history (hours):
 
Tides and Currents Weather Stations Pressure Air Temp Water Temp Dewpoint Dewpoint Depression Visibility Wind Speed Wind Dir Waves Ship Positions

Clarity

Last reported at 2018-Jul-13 12:32 UTC. Time now 2018-Aug-14 06:59 UTC.
Position N 26°00' W 079°45'.
Warning: this ship's position is 31 days out of date.

Length 48 m; draft 2.3 m.

Type: Pleasure craft. MMSI: 538071088.

Date/timePositionNaut miles runAvg speedWind from/ knotsBaromVisibWave heightAir tempDewpointWater temp
2018-Jul-13 12:32N 26°00' W 079°45'1 9.5
2018-Jul-13 12:27N 26°01' W 079°46'4 8.5
2018-Jul-13 12:00N 26°02' W 079°50'2 4.9
2018-Jul-13 11:30N 26°04' W 079°52'3 5.9
2018-Jul-13 11:00N 26°04' W 079°56'3 6.5
2018-Jul-13 10:30N 26°04' W 079°59'3 6.5
2018-Jul-13 10:00N 26°05' W 080°03'4 7.2
2018-Jul-13 09:30N 26°06' W 080°07'1 2.1
2018-Jul-13 09:00N 26°07' W 080°07'0 0.3
2018-Jul-13 08:30N 26°07' W 080°07'0 0.0
2018-Jul-13 08:00N 26°07' W 080°07'0 0.0
2018-Jul-13 07:29N 26°07' W 080°07'0 0.0
2018-Jul-13 07:00N 26°07' W 080°07'0 0.0
2018-Jul-13 06:30N 26°07' W 080°07'0 0.0
2018-Jul-13 06:00N 26°07' W 080°07'0 0.0
2018-Jul-13 05:30N 26°07' W 080°07'0 0.0
2018-Jul-13 05:00N 26°07' W 080°07'0 0.0
2018-Jul-13 04:30N 26°07' W 080°07'0 0.0
2018-Jul-13 03:59N 26°07' W 080°07'0 0.0
2018-Jul-13 03:29N 26°07' W 080°07'0 0.0
2018-Jul-13 03:00N 26°07' W 080°07'0 0.0
2018-Jul-13 02:30N 26°07' W 080°07'0 0.0
2018-Jul-13 02:00N 26°07' W 080°07'0 0.0
2018-Jul-13 01:30N 26°07' W 080°07'0 0.0
2018-Jul-13 01:00N 26°07' W 080°07'0 0.0
2018-Jul-13 00:30N 26°07' W 080°07'0 0.0
2018-Jul-13 00:00N 26°07' W 080°07'0 0.0
2018-Jul-12 23:29N 26°07' W 080°07'0 0.0
2018-Jul-12 23:00N 26°07' W 080°07'0 0.0
2018-Jul-12 22:30N 26°07' W 080°07'0 0.0
2018-Jul-12 22:00N 26°07' W 080°07'0 0.0
2018-Jul-12 21:30N 26°07' W 080°07'0 0.0
2018-Jul-12 21:00N 26°07' W 080°07'0 0.0
2018-Jul-12 20:30N 26°07' W 080°07'0 0.0
2018-Jul-12 20:00N 26°07' W 080°07'0 0.0
2018-Jul-12 19:30N 26°07' W 080°07'0 0.0
2018-Jul-12 19:00N 26°07' W 080°07'0 0.0
2018-Jul-12 18:30N 26°07' W 080°07'0 0.0
2018-Jul-12 18:00N 26°07' W 080°07'0 0.0
2018-Jul-12 17:30N 26°07' W 080°07'0 0.0
2018-Jul-12 17:00N 26°07' W 080°07'0 0.0
2018-Jul-12 16:30N 26°07' W 080°07'0 0.0
2018-Jul-12 16:00N 26°07' W 080°07'0 0.0
2018-Jul-12 15:30N 26°07' W 080°07'0 0.0
2018-Jul-12 14:59N 26°07' W 080°07'0 0.0
2018-Jul-12 14:30N 26°07' W 080°07'0 0.0
2018-Jul-12 14:00N 26°07' W 080°07'0 0.0
2018-Jul-12 13:30N 26°07' W 080°07'0 0.0
2018-Jul-12 12:59N 26°07' W 080°07'0 0.0
2018-Jul-12 12:30N 26°07' W 080°07'0 0.0
2018-Jul-12 12:00N 26°07' W 080°07'0 0.0
2018-Jul-12 11:30N 26°07' W 080°07'0 0.0
2018-Jul-12 11:00N 26°07' W 080°07'0 0.0
2018-Jul-12 10:30N 26°07' W 080°07'0 0.0
2018-Jul-12 10:00N 26°07' W 080°07'0 0.0
2018-Jul-12 09:30N 26°07' W 080°07'0 0.0
2018-Jul-12 09:00N 26°07' W 080°07'0 0.0
2018-Jul-12 08:30N 26°07' W 080°07'0 0.0
2018-Jul-12 08:00N 26°07' W 080°07'0 0.0
2018-Jul-12 07:30N 26°07' W 080°07'0 0.0
2018-Jul-12 07:00N 26°07' W 080°07'0 0.0
2018-Jul-12 06:30N 26°07' W 080°07'0 0.0
2018-Jul-12 06:00N 26°07' W 080°07'0 0.0
2018-Jul-12 05:30N 26°07' W 080°07'0 0.0
2018-Jul-12 04:59N 26°07' W 080°07'0 0.0
2018-Jul-12 04:30N 26°07' W 080°07'0 0.0
2018-Jul-12 04:00N 26°07' W 080°07'0 0.0
2018-Jul-12 03:30N 26°07' W 080°07'0 0.0
2018-Jul-12 03:00N 26°07' W 080°07'0 0.0
2018-Jul-12 02:30N 26°07' W 080°07'0 0.0
2018-Jul-12 02:00N 26°07' W 080°07'0 0.0
2018-Jul-12 01:30N 26°07' W 080°07'0 0.0
2018-Jul-12 01:00N 26°07' W 080°07'0 0.0
2018-Jul-12 00:30N 26°07' W 080°07'0 0.0
2018-Jul-12 00:00N 26°07' W 080°07'0 0.0
2018-Jul-11 23:26N 26°07' W 080°07'0 0.0
2018-Jul-11 23:00N 26°07' W 080°07'0 0.0
2018-Jul-11 22:30N 26°07' W 080°07'0 0.0
2018-Jul-11 22:00N 26°07' W 080°07'0 0.0
2018-Jul-11 21:30N 26°07' W 080°07'0 0.0
2018-Jul-11 21:00N 26°07' W 080°07'0 0.0
2018-Jul-11 20:30N 26°07' W 080°07'0 0.0
2018-Jul-11 20:00N 26°07' W 080°07'0 0.0
2018-Jul-11 19:30N 26°07' W 080°07'0 0.0
2018-Jul-11 19:00N 26°07' W 080°07'0 0.0
2018-Jul-11 18:30N 26°07' W 080°07'0 0.0
2018-Jul-11 18:00N 26°07' W 080°07'0 0.0
2018-Jul-11 17:30N 26°07' W 080°07'0 0.0
2018-Jul-11 17:00N 26°07' W 080°07'0 0.0
2018-Jul-11 16:30N 26°07' W 080°07'0 0.0
2018-Jul-11 15:59N 26°07' W 080°07'0 0.0
2018-Jul-11 15:30N 26°07' W 080°07'0 0.0
2018-Jul-11 15:00N 26°07' W 080°07'0 0.0
2018-Jul-11 14:30N 26°07' W 080°07'0 0.0
2018-Jul-11 14:00N 26°07' W 080°07'0 0.0
2018-Jul-11 13:30N 26°07' W 080°07'0 0.0
2018-Jul-11 13:00N 26°07' W 080°07'0 0.0
2018-Jul-11 12:30N 26°07' W 080°07'0 0.0
2018-Jul-11 12:00N 26°07' W 080°07'0 0.0
2018-Jul-11 11:30N 26°07' W 080°07'0 0.0
2018-Jul-11 10:59N 26°07' W 080°07'0 0.0
2018-Jul-11 10:29N 26°07' W 080°07'0 0.0
2018-Jul-11 10:00N 26°07' W 080°07'0 0.0
2018-Jul-11 09:29N 26°07' W 080°07'0 0.0
2018-Jul-11 09:00N 26°07' W 080°07'0 0.0
2018-Jul-11 08:30N 26°07' W 080°07'0 0.0
2018-Jul-11 08:00N 26°07' W 080°07'0 0.0
2018-Jul-11 07:30N 26°07' W 080°07'0 0.0
2018-Jul-11 07:00N 26°07' W 080°07'0 0.0
2018-Jul-11 06:30N 26°07' W 080°07'0 0.0
2018-Jul-11 06:00N 26°07' W 080°07'0 0.0
2018-Jul-11 05:29N 26°07' W 080°07'0 0.0
2018-Jul-11 04:58N 26°07' W 080°07'0 0.0
2018-Jul-11 04:30N 26°07' W 080°07'0 0.0
2018-Jul-11 04:00N 26°07' W 080°07'0 0.0
2018-Jul-11 03:30N 26°07' W 080°07'0 0.0
2018-Jul-11 03:00N 26°07' W 080°07'0 0.0
2018-Jul-11 02:30N 26°07' W 080°07'0 0.0
2018-Jul-11 02:00N 26°07' W 080°07'0 0.0
2018-Jul-11 01:30N 26°07' W 080°07'0 0.0
2018-Jul-11 01:00N 26°07' W 080°07'0 0.0
2018-Jul-11 00:30N 26°07' W 080°07'0 0.0
2018-Jul-11 00:00N 26°07' W 080°07'0 0.0
2018-Jul-10 23:30N 26°07' W 080°07'0 0.0
2018-Jul-10 23:00N 26°07' W 080°07'0 0.0
2018-Jul-10 22:30N 26°07' W 080°07'0 0.0
2018-Jul-10 22:00N 26°07' W 080°07'0 0.0
2018-Jul-10 21:30N 26°07' W 080°07'0 0.0
2018-Jul-10 21:00N 26°07' W 080°07'0 0.0
2018-Jul-10 20:30N 26°07' W 080°07'0 0.0
2018-Jul-10 20:00N 26°07' W 080°07'0 0.0
2018-Jul-10 19:30N 26°07' W 080°07'0 0.0
2018-Jul-10 19:00N 26°07' W 080°07'0 0.0
2018-Jul-10 18:30N 26°07' W 080°07'0 0.0
2018-Jul-10 18:00N 26°07' W 080°07'0 0.0
2018-Jul-10 17:30N 26°07' W 080°07'0 0.0
2018-Jul-10 17:00N 26°07' W 080°07'0 0.0
2018-Jul-10 16:29N 26°07' W 080°07'0 0.0
2018-Jul-10 15:59N 26°07' W 080°07'0 0.0
2018-Jul-10 15:30N 26°07' W 080°07'0 0.0
2018-Jul-10 15:00N 26°07' W 080°07'0 0.0
2018-Jul-10 14:30N 26°07' W 080°07'0 0.0
2018-Jul-10 14:00N 26°07' W 080°07'0 0.0
2018-Jul-10 13:30N 26°07' W 080°07'0 0.0
2018-Jul-10 13:00N 26°07' W 080°07'0 0.0
2018-Jul-10 12:30N 26°07' W 080°07'0 0.0
2018-Jul-10 12:00N 26°07' W 080°07'0 0.0
2018-Jul-10 11:30N 26°07' W 080°07'0 0.0
2018-Jul-10 11:00N 26°07' W 080°07'0 0.0
2018-Jul-10 10:30N 26°07' W 080°07'0 0.0
2018-Jul-10 10:00N 26°07' W 080°07'0 0.0
2018-Jul-10 09:30N 26°07' W 080°07'0 0.0
2018-Jul-10 09:00N 26°07' W 080°07'0 0.0
2018-Jul-10 08:30N 26°07' W 080°07'0 0.0
2018-Jul-10 08:00N 26°07' W 080°07'0 0.0
2018-Jul-10 07:30N 26°07' W 080°07'0 0.0
2018-Jul-10 07:00N 26°07' W 080°07'0 0.0
2018-Jul-10 06:30N 26°07' W 080°07'0 0.0
2018-Jul-10 06:00N 26°07' W 080°07'0 0.0
2018-Jul-10 05:30N 26°07' W 080°07'0 0.0
2018-Jul-10 05:00N 26°07' W 080°07'0 0.0
2018-Jul-10 04:30N 26°07' W 080°07'0 0.0
2018-Jul-10 04:00N 26°07' W 080°07'0 0.0
2018-Jul-10 03:30N 26°07' W 080°07'0 0.0
2018-Jul-10 03:00N 26°07' W 080°07'0 0.0
2018-Jul-10 02:30N 26°07' W 080°07'0 0.0
2018-Jul-10 02:00N 26°07' W 080°07'0 0.0
2018-Jul-10 01:30N 26°07' W 080°07'0 0.0
2018-Jul-10 01:00N 26°07' W 080°07'0 0.0
2018-Jul-10 00:30N 26°07' W 080°07'0 0.0
2018-Jul-10 00:00N 26°07' W 080°07'0 0.0
2018-Jul-09 23:29N 26°07' W 080°07'0 0.0
2018-Jul-09 22:59N 26°07' W 080°07'0 0.0
2018-Jul-09 22:30N 26°07' W 080°07'0 0.0
2018-Jul-09 21:59N 26°07' W 080°07'0 0.0
2018-Jul-09 21:30N 26°07' W 080°07'0 0.0
2018-Jul-09 21:00N 26°07' W 080°07'0 0.0
2018-Jul-09 20:29N 26°07' W 080°07'0 0.0
2018-Jul-09 20:00N 26°07' W 080°07'0 0.0
2018-Jul-09 19:30N 26°07' W 080°07'0 0.0
2018-Jul-09 19:00N 26°07' W 080°07'0 0.0
2018-Jul-09 18:30N 26°07' W 080°07'0 0.0
2018-Jul-09 18:00N 26°07' W 080°07'0 0.0
2018-Jul-09 17:30N 26°07' W 080°07'0 0.0
2018-Jul-09 16:59N 26°07' W 080°07'0 0.0
2018-Jul-09 16:30N 26°07' W 080°07'0 0.0
2018-Jul-09 16:00N 26°07' W 080°07'0 0.0
2018-Jul-09 15:30N 26°07' W 080°07'0 0.0
2018-Jul-09 15:00N 26°07' W 080°07'0 0.0
2018-Jul-09 14:30N 26°07' W 080°07'0 0.0
2018-Jul-09 14:00N 26°07' W 080°07'0 0.0
2018-Jul-09 13:30N 26°07' W 080°07'0 0.0
2018-Jul-09 13:00N 26°07' W 080°07'0 0.0
2018-Jul-09 12:30N 26°07' W 080°07'0 0.0
2018-Jul-09 12:00N 26°07' W 080°07'0 0.0
2018-Jul-09 11:30N 26°07' W 080°07'0 0.0
2018-Jul-09 11:00N 26°07' W 080°07'0 0.0
2018-Jul-09 10:30N 26°07' W 080°07'0 0.0
2018-Jul-09 10:00N 26°07' W 080°07'0 0.0
2018-Jul-09 09:30N 26°07' W 080°07'0 0.0
2018-Jul-09 09:00N 26°07' W 080°07'0 0.0
2018-Jul-09 08:29N 26°07' W 080°07'0 0.0
2018-Jul-09 08:00N 26°07' W 080°07'0 0.0
2018-Jul-09 07:30N 26°07' W 080°07'0 0.0
2018-Jul-09 07:00N 26°07' W 080°07'0 0.0
2018-Jul-09 06:30N 26°07' W 080°07'0 0.0
2018-Jul-09 06:00N 26°07' W 080°07'0 0.0
2018-Jul-09 05:30N 26°07' W 080°07'0 0.0
2018-Jul-09 05:00N 26°07' W 080°07'0 0.0
2018-Jul-09 04:30N 26°07' W 080°07'0 0.0
2018-Jul-09 04:00N 26°07' W 080°07'0 0.0
2018-Jul-09 03:30N 26°07' W 080°07'0 0.0
2018-Jul-09 03:00N 26°07' W 080°07'0 0.0
2018-Jul-09 02:29N 26°07' W 080°07'0 0.0
2018-Jul-09 02:00N 26°07' W 080°07'0 0.0
2018-Jul-09 01:30N 26°07' W 080°07'0 0.0
2018-Jul-09 01:00N 26°07' W 080°07'0 0.0
2018-Jul-09 00:30N 26°07' W 080°07'0 0.0
2018-Jul-09 00:00N 26°07' W 080°07'0 0.0
2018-Jul-08 23:30N 26°07' W 080°07'0 0.0
2018-Jul-08 23:00N 26°07' W 080°07'0 0.0
2018-Jul-08 22:30N 26°07' W 080°07'0 0.0
2018-Jul-08 22:00N 26°07' W 080°07'0 0.0
2018-Jul-08 21:30N 26°07' W 080°07'0 0.0
2018-Jul-08 20:59N 26°07' W 080°07'0 0.0
2018-Jul-08 20:30N 26°07' W 080°07'0 0.0
2018-Jul-08 20:00N 26°07' W 080°07'0 0.0
2018-Jul-08 19:30N 26°07' W 080°07'0 0.0
2018-Jul-08 19:00N 26°07' W 080°07'0 0.0
2018-Jul-08 18:30N 26°07' W 080°07'0 0.0
2018-Jul-08 18:00N 26°07' W 080°07'0 0.0
2018-Jul-08 17:30N 26°07' W 080°07'0 0.0
2018-Jul-08 17:00N 26°07' W 080°07'0 0.0
2018-Jul-08 16:30N 26°07' W 080°07'0 0.0
2018-Jul-08 16:00N 26°07' W 080°07'0 0.0
2018-Jul-08 15:30N 26°07' W 080°07'0 0.0
2018-Jul-08 15:00N 26°07' W 080°07'0 0.0
2018-Jul-08 14:30N 26°07' W 080°07'0 0.0
2018-Jul-08 14:00N 26°07' W 080°07'0 0.0
2018-Jul-08 13:30N 26°07' W 080°07'0 0.0
2018-Jul-08 13:00N 26°07' W 080°07'0 0.0
2018-Jul-08 12:30N 26°07' W 080°07'0 0.0
2018-Jul-08 12:00N 26°07' W 080°07'0 0.0
2018-Jul-08 11:30N 26°07' W 080°07'0 0.0
2018-Jul-08 11:00N 26°07' W 080°07'0 0.0
2018-Jul-08 10:30N 26°07' W 080°07'0 0.0
2018-Jul-08 10:00N 26°07' W 080°07'0 0.0
2018-Jul-08 09:30N 26°07' W 080°07'0 0.0
2018-Jul-08 08:59N 26°07' W 080°07'0 0.0
2018-Jul-08 08:30N 26°07' W 080°07'0 0.0
2018-Jul-08 07:59N 26°07' W 080°07'0 0.0
2018-Jul-08 07:30N 26°07' W 080°07'0 0.0
2018-Jul-08 07:00N 26°07' W 080°07'0 0.0
2018-Jul-08 06:30N 26°07' W 080°07'0 0.0
2018-Jul-08 06:00N 26°07' W 080°07'0 0.0
2018-Jul-08 05:30N 26°07' W 080°07'0 0.0
2018-Jul-08 05:00N 26°07' W 080°07'0 0.0
2018-Jul-08 04:30N 26°07' W 080°07'0 0.0
2018-Jul-08 04:00N 26°07' W 080°07'0 0.0
2018-Jul-08 03:30N 26°07' W 080°07'0 0.0
2018-Jul-08 03:00N 26°07' W 080°07'0 0.0
2018-Jul-08 02:30N 26°07' W 080°07'0 0.0
2018-Jul-08 02:00N 26°07' W 080°07'0 0.0
2018-Jul-08 01:30N 26°07' W 080°07'0 0.0
2018-Jul-08 01:00N 26°07' W 080°07'0 0.0
2018-Jul-08 00:30N 26°07' W 080°07'0 0.0
2018-Jul-08 00:00N 26°07' W 080°07'0 0.0
2018-Jul-07 23:29N 26°07' W 080°07'0 0.0
2018-Jul-07 23:00N 26°07' W 080°07'0 0.0
2018-Jul-07 22:30N 26°07' W 080°07'0 0.0
2018-Jul-07 22:00N 26°07' W 080°07'0 0.0
2018-Jul-07 21:30N 26°07' W 080°07'0 0.0
2018-Jul-07 21:00N 26°07' W 080°07'0 0.0
2018-Jul-07 20:30N 26°07' W 080°07'0 0.0
2018-Jul-07 20:00N 26°07' W 080°07'0 0.0
2018-Jul-07 19:30N 26°07' W 080°07'0 0.0
2018-Jul-07 19:00N 26°07' W 080°07'0 0.0
2018-Jul-07 18:30N 26°07' W 080°07'0 0.0
2018-Jul-07 17:59N 26°07' W 080°07'0 0.0
2018-Jul-07 17:30N 26°07' W 080°07'0 0.0
2018-Jul-07 17:00N 26°07' W 080°07'0 0.0
2018-Jul-07 16:30N 26°07' W 080°07'0 0.0
2018-Jul-07 16:00N 26°07' W 080°07'0 0.0
2018-Jul-07 15:30N 26°07' W 080°07'0 0.0
2018-Jul-07 15:00N 26°07' W 080°07'0 0.0
2018-Jul-07 14:30N 26°07' W 080°07'0 0.0
2018-Jul-07 14:00N 26°07' W 080°07'0 0.0
2018-Jul-07 13:30N 26°07' W 080°07'0 0.0
2018-Jul-07 13:00N 26°07' W 080°07'0 0.0
2018-Jul-07 12:30N 26°07' W 080°07'0 0.0
2018-Jul-07 12:00N 26°07' W 080°07'0 0.0
2018-Jul-07 11:30N 26°07' W 080°07'0 0.0
2018-Jul-07 11:00N 26°07' W 080°07'0 0.0
2018-Jul-07 10:30N 26°07' W 080°07'0 0.0
2018-Jul-07 10:00N 26°07' W 080°07'0 0.0
2018-Jul-07 09:30N 26°07' W 080°07'0 0.0
2018-Jul-07 09:00N 26°07' W 080°07'0 0.0
2018-Jul-07 08:30N 26°07' W 080°07'0 0.0
2018-Jul-07 08:00N 26°07' W 080°07'0 0.0
2018-Jul-07 07:30N 26°07' W 080°07'0 0.0
2018-Jul-07 07:00N 26°07' W 080°07'0 0.0
2018-Jul-07 06:30N 26°07' W 080°07'0 0.0
2018-Jul-07 06:00N 26°07' W 080°07'0 0.0
2018-Jul-07 05:30N 26°07' W 080°07'0 0.0
2018-Jul-07 05:00N 26°07' W 080°07'0 0.0
2018-Jul-07 04:29N 26°07' W 080°07'0 0.0
2018-Jul-07 04:00N 26°07' W 080°07'0 0.0
2018-Jul-07 03:30N 26°07' W 080°07'0 0.0
2018-Jul-07 03:00N 26°07' W 080°07'0 0.0
2018-Jul-07 02:30N 26°07' W 080°07'0 0.0
2018-Jul-07 02:00N 26°07' W 080°07'0 0.0
2018-Jul-07 01:29N 26°07' W 080°07'0 0.0
2018-Jul-07 01:00N 26°07' W 080°07'0 0.0
2018-Jul-07 00:29N 26°07' W 080°07'0 0.0
2018-Jul-07 00:00N 26°07' W 080°07'0 0.0
2018-Jul-06 23:30N 26°07' W 080°07'0 0.0
2018-Jul-06 23:00N 26°07' W 080°07'0 0.0
2018-Jul-06 22:30N 26°07' W 080°07'0 0.0
2018-Jul-06 22:00N 26°07' W 080°07'0 0.0
2018-Jul-06 21:30N 26°07' W 080°07'0 0.0
2018-Jul-06 21:00N 26°07' W 080°07'0 0.0
2018-Jul-06 20:30N 26°07' W 080°07'0 0.0
2018-Jul-06 20:00N 26°07' W 080°07'0 0.0
2018-Jul-06 19:30N 26°07' W 080°07'0 0.1
2018-Jul-06 19:00N 26°07' W 080°07'0 0.0
2018-Jul-06 18:30N 26°07' W 080°06'0 0.0
2018-Jul-06 18:00N 26°07' W 080°06'0 0.0
2018-Jul-06 17:30N 26°07' W 080°06'0 0.0
2018-Jul-06 17:00N 26°07' W 080°06'0 0.0
2018-Jul-06 16:30N 26°07' W 080°06'0 0.0
2018-Jul-06 16:00N 26°07' W 080°06'0 0.0
2018-Jul-06 15:29N 26°07' W 080°06'0 0.0
2018-Jul-06 14:59N 26°07' W 080°06'0 0.0
2018-Jul-06 14:30N 26°07' W 080°06'0 0.0
2018-Jul-06 14:00N 26°07' W 080°06'0 0.0
2018-Jul-06 13:30N 26°07' W 080°06'0 0.0
2018-Jul-06 13:00N 26°07' W 080°06'0 0.0
2018-Jul-06 12:30N 26°07' W 080°06'0 0.0
2018-Jul-06 12:00N 26°07' W 080°06'0 0.0
2018-Jul-06 11:30N 26°07' W 080°06'0 0.0
2018-Jul-06 11:00N 26°07' W 080°06'0 0.0
2018-Jul-06 10:30N 26°07' W 080°06'0 0.0
2018-Jul-06 10:00N 26°07' W 080°06'0 0.0
2018-Jul-06 09:30N 26°07' W 080°06'0 0.0
2018-Jul-06 09:00N 26°07' W 080°06'0 0.0
2018-Jul-06 08:30N 26°07' W 080°06'0 0.0
2018-Jul-06 08:00N 26°07' W 080°06'0 0.0
2018-Jul-06 07:30N 26°07' W 080°06'0 0.0
2018-Jul-06 07:00N 26°07' W 080°06'0 0.0
2018-Jul-06 06:30N 26°07' W 080°06'0 0.0
2018-Jul-06 06:00N 26°07' W 080°06'0 0.0
2018-Jul-06 05:30N 26°07' W 080°06'0 0.0
2018-Jul-06 05:00N 26°07' W 080°06'0 0.0
2018-Jul-06 04:30N 26°07' W 080°06'0 0.0
2018-Jul-06 04:00N 26°07' W 080°06'0 0.0
2018-Jul-06 03:30N 26°07' W 080°06'0 0.0
2018-Jul-06 03:00N 26°07' W 080°06'0 0.0
2018-Jul-06 02:30N 26°07' W 080°06'0 0.0
2018-Jul-06 02:00N 26°07' W 080°06'0 0.0
2018-Jul-06 01:30N 26°07' W 080°06'0 0.0
2018-Jul-06 01:00N 26°07' W 080°06'0 0.0
2018-Jul-06 00:30N 26°07' W 080°06'0 0.0
2018-Jul-06 00:00N 26°07' W 080°06'0 0.0
2018-Jul-05 23:30N 26°07' W 080°06'0 0.0
2018-Jul-05 23:00N 26°07' W 080°06'0 0.0
2018-Jul-05 22:30N 26°07' W 080°06'0 0.0
2018-Jul-05 22:00N 26°07' W 080°06'0 0.0
2018-Jul-05 21:30N 26°07' W 080°06'0 0.0
2018-Jul-05 21:00N 26°07' W 080°06'0 0.0
2018-Jul-05 20:30N 26°07' W 080°06'0 0.0
2018-Jul-05 20:00N 26°07' W 080°06'0 0.0
2018-Jul-05 19:30N 26°07' W 080°06'0 0.0
2018-Jul-05 19:00N 26°07' W 080°06'0 0.0
2018-Jul-05 18:30N 26°07' W 080°06'0 0.0
2018-Jul-05 17:59N 26°07' W 080°06'0 0.0
2018-Jul-05 17:30N 26°07' W 080°06'0 0.0
2018-Jul-05 17:00N 26°07' W 080°06'0 0.0
2018-Jul-05 16:29N 26°07' W 080°06'0 0.0
2018-Jul-05 16:00N 26°07' W 080°06'0 0.0
2018-Jul-05 15:30N 26°07' W 080°06'0 0.0
2018-Jul-05 15:00N 26°07' W 080°06'0 0.0
2018-Jul-05 14:00N 26°07' W 080°06'0 0.0
2018-Jul-05 13:30N 26°07' W 080°06'0 0.0
2018-Jul-05 13:00N 26°07' W 080°06'0 0.0
2018-Jul-05 12:30N 26°07' W 080°06'0 0.0
2018-Jul-05 11:59N 26°07' W 080°06'0 0.0
2018-Jul-05 11:30N 26°07' W 080°06'0 0.0
2018-Jul-05 11:00N 26°07' W 080°06'0 0.0
2018-Jul-05 10:30N 26°07' W 080°06'0 0.0
2018-Jul-05 10:00N 26°07' W 080°06'0 0.0
2018-Jul-05 09:30N 26°07' W 080°06'0 0.0
2018-Jul-05 09:00N 26°07' W 080°06'0 0.0
2018-Jul-05 08:30N 26°07' W 080°06'0 0.0
2018-Jul-05 08:00N 26°07' W 080°06'0 0.0
2018-Jul-05 07:30N 26°07' W 080°06'0 0.0
2018-Jul-05 06:59N 26°07' W 080°06'0 0.0
2018-Jul-05 06:30N 26°07' W 080°06'0 0.0
2018-Jul-05 06:00N 26°07' W 080°06'0 0.0
2018-Jul-05 05:30N 26°07' W 080°06'0 0.0
2018-Jul-05 05:00N 26°07' W 080°06'0 0.0
2018-Jul-05 04:30N 26°07' W 080°06'0 0.0
2018-Jul-05 04:00N 26°07' W 080°06'0 0.0
2018-Jul-05 03:30N 26°07' W 080°06'0 0.0
2018-Jul-05 03:00N 26°07' W 080°06'0 0.0
2018-Jul-05 02:30N 26°07' W 080°06'0 0.0
2018-Jul-05 01:59N 26°07' W 080°06'0 0.0
2018-Jul-05 01:30N 26°07' W 080°06'0 0.0
2018-Jul-05 01:00N 26°07' W 080°06'0 0.0
2018-Jul-05 00:30N 26°07' W 080°06'0 0.0
2018-Jul-05 00:00N 26°07' W 080°06'0 0.0
2018-Jul-04 23:30N 26°07' W 080°06'0 0.0
2018-Jul-04 23:00N 26°07' W 080°06'0 0.0
2018-Jul-04 22:30N 26°07' W 080°06'0 0.0
2018-Jul-04 22:00N 26°07' W 080°06'0 0.0
2018-Jul-04 21:30N 26°07' W 080°06'0 0.0
2018-Jul-04 21:00N 26°07' W 080°06'0 0.0
2018-Jul-04 20:30N 26°07' W 080°06'0 0.0
2018-Jul-04 20:00N 26°07' W 080°06'0 0.0
2018-Jul-04 19:30N 26°07' W 080°06'0 0.0
2018-Jul-04 19:00N 26°07' W 080°06'0 0.0
2018-Jul-04 18:30N 26°07' W 080°06'0 0.0
2018-Jul-04 18:00N 26°07' W 080°06'0 0.0
2018-Jul-04 17:30N 26°07' W 080°06'0 0.0
2018-Jul-04 17:00N 26°07' W 080°06'0 0.0
2018-Jul-04 16:30N 26°07' W 080°06'0 0.0
2018-Jul-04 16:00N 26°07' W 080°06'0 0.0
2018-Jul-04 15:30N 26°07' W 080°06'0 0.0
2018-Jul-04 15:00N 26°07' W 080°06'0 0.0
2018-Jul-04 14:30N 26°07' W 080°06'0 0.0
2018-Jul-04 14:00N 26°07' W 080°06'0 0.0
2018-Jul-04 13:30N 26°07' W 080°06'0 0.0
2018-Jul-04 13:00N 26°07' W 080°06'0 0.0
2018-Jul-04 12:30N 26°07' W 080°06'0 0.0
2018-Jul-04 12:00N 26°07' W 080°06'0 0.0
2018-Jul-04 11:30N 26°07' W 080°06'0 0.0
2018-Jul-04 11:00N 26°07' W 080°06'0 0.0
2018-Jul-04 10:30N 26°07' W 080°06'0 0.0
2018-Jul-04 10:00N 26°07' W 080°06'0 0.0
2018-Jul-04 09:30N 26°07' W 080°06'0 0.0
2018-Jul-04 09:00N 26°07' W 080°06'0 0.0
2018-Jul-04 08:30N 26°07' W 080°06'0 0.0
2018-Jul-04 08:00N 26°07' W 080°06'0 0.0
2018-Jul-04 07:30N 26°07' W 080°06'0 0.0
2018-Jul-04 07:00N 26°07' W 080°06'0 0.0
2018-Jul-04 06:28N 26°07' W 080°06'0 0.0
2018-Jul-04 05:59N 26°07' W 080°06'0 0.0
2018-Jul-04 05:30N 26°07' W 080°06'0 0.0
2018-Jul-04 05:00N 26°07' W 080°06'0 0.0
2018-Jul-04 04:30N 26°07' W 080°06'0 0.0
2018-Jul-04 04:00N 26°07' W 080°06'0 0.0
2018-Jul-04 03:30N 26°07' W 080°06'0 0.0
2018-Jul-04 03:00N 26°07' W 080°06'0 0.0
2018-Jul-04 02:30N 26°07' W 080°06'0 0.0
2018-Jul-04 02:00N 26°07' W 080°06'0 0.0
2018-Jul-04 01:30N 26°07' W 080°06'0 0.0
2018-Jul-04 01:00N 26°07' W 080°06'0 0.0
2018-Jul-04 00:30N 26°07' W 080°06'0 0.0
2018-Jul-04 00:00N 26°07' W 080°06'0 0.0
2018-Jul-03 23:30N 26°07' W 080°06'0 0.0
2018-Jul-03 22:59N 26°07' W 080°06'0 0.0
2018-Jul-03 22:30N 26°07' W 080°06'0 0.0
2018-Jul-03 22:00N 26°07' W 080°06'0 0.0
2018-Jul-03 21:30N 26°07' W 080°06'0 0.0
2018-Jul-03 21:00N 26°07' W 080°06'0 0.0
2018-Jul-03 20:30N 26°07' W 080°06'0 0.0
2018-Jul-03 20:00N 26°07' W 080°06'0 0.0
2018-Jul-03 19:30N 26°07' W 080°06'0 0.0
2018-Jul-03 19:00N 26°07' W 080°06'0 0.0
2018-Jul-03 18:30N 26°07' W 080°06'0 0.0
2018-Jul-03 18:00N 26°07' W 080°06'0 0.0
2018-Jul-03 17:30N 26°07' W 080°06'0 0.0
2018-Jul-03 17:00N 26°07' W 080°06'0 0.0
2018-Jul-03 16:30N 26°07' W 080°06'0 0.0
2018-Jul-03 16:00N 26°07' W 080°06'0 0.0
2018-Jul-03 15:30N 26°07' W 080°06'0 0.0
2018-Jul-03 15:00N 26°07' W 080°06'0 0.0
2018-Jul-03 14:30N 26°07' W 080°06'0 0.0
2018-Jul-03 14:00N 26°07' W 080°06'0 0.0
2018-Jul-03 13:30N 26°07' W 080°06'0 0.0
2018-Jul-03 13:00N 26°07' W 080°06'  
Track history (hours):
 
Tides and Currents Weather Stations Pressure Air Temp Water Temp Dewpoint Dewpoint Depression Visibility Wind Speed Wind Dir Waves Ship Positions

Clarity

Last reported at 2018-Jul-13 12:32 UTC. Time now 2018-Aug-14 06:59 UTC.
Position N 26°00' W 079°45'.
Warning: this ship's position is 31 days out of date.

Length 48 m; draft 2.3 m.

Type: Pleasure craft. MMSI: 538071088.

Date/timePositionNaut miles runAvg speedWind from/ knotsBaromVisibWave heightAir tempDewpointWater temp
2018-Jul-13 12:32N 26°00' W 079°45'1 9.5
2018-Jul-13 12:27N 26°01' W 079°46'4 8.5
2018-Jul-13 12:00N 26°02' W 079°50'2 4.9
2018-Jul-13 11:30N 26°04' W 079°52'3 5.9
2018-Jul-13 11:00N 26°04' W 079°56'3 6.5
2018-Jul-13 10:30N 26°04' W 079°59'3 6.5
2018-Jul-13 10:00N 26°05' W 080°03'4 7.2
2018-Jul-13 09:30N 26°06' W 080°07'1 2.1
2018-Jul-13 09:00N 26°07' W 080°07'0 0.3
2018-Jul-13 08:30N 26°07' W 080°07'0 0.0
2018-Jul-13 08:00N 26°07' W 080°07'0 0.0
2018-Jul-13 07:29N 26°07' W 080°07'0 0.0
2018-Jul-13 07:00N 26°07' W 080°07'0 0.0
2018-Jul-13 06:30N 26°07' W 080°07'0 0.0
2018-Jul-13 06:00N 26°07' W 080°07'0 0.0
2018-Jul-13 05:30N 26°07' W 080°07'0 0.0
2018-Jul-13 05:00N 26°07' W 080°07'0 0.0
2018-Jul-13 04:30N 26°07' W 080°07'0 0.0
2018-Jul-13 03:59N 26°07' W 080°07'0 0.0
2018-Jul-13 03:29N 26°07' W 080°07'0 0.0
2018-Jul-13 03:00N 26°07' W 080°07'0 0.0
2018-Jul-13 02:30N 26°07' W 080°07'0 0.0
2018-Jul-13 02:00N 26°07' W 080°07'0 0.0
2018-Jul-13 01:30N 26°07' W 080°07'0 0.0
2018-Jul-13 01:00N 26°07' W 080°07'0 0.0
2018-Jul-13 00:30N 26°07' W 080°07'0 0.0
2018-Jul-13 00:00N 26°07' W 080°07'0 0.0
2018-Jul-12 23:29N 26°07' W 080°07'0 0.0
2018-Jul-12 23:00N 26°07' W 080°07'0 0.0
2018-Jul-12 22:30N 26°07' W 080°07'0 0.0
2018-Jul-12 22:00N 26°07' W 080°07'0 0.0
2018-Jul-12 21:30N 26°07' W 080°07'0 0.0
2018-Jul-12 21:00N 26°07' W 080°07'0 0.0
2018-Jul-12 20:30N 26°07' W 080°07'0 0.0
2018-Jul-12 20:00N 26°07' W 080°07'0 0.0
2018-Jul-12 19:30N 26°07' W 080°07'0 0.0
2018-Jul-12 19:00N 26°07' W 080°07'0 0.0
2018-Jul-12 18:30N 26°07' W 080°07'0 0.0
2018-Jul-12 18:00N 26°07' W 080°07'0 0.0
2018-Jul-12 17:30N 26°07' W 080°07'0 0.0
2018-Jul-12 17:00N 26°07' W 080°07'0 0.0
2018-Jul-12 16:30N 26°07' W 080°07'0 0.0
2018-Jul-12 16:00N 26°07' W 080°07'0 0.0
2018-Jul-12 15:30N 26°07' W 080°07'0 0.0
2018-Jul-12 14:59N 26°07' W 080°07'0 0.0
2018-Jul-12 14:30N 26°07' W 080°07'0 0.0
2018-Jul-12 14:00N 26°07' W 080°07'0 0.0
2018-Jul-12 13:30N 26°07' W 080°07'0 0.0
2018-Jul-12 12:59N 26°07' W 080°07'0 0.0
2018-Jul-12 12:30N 26°07' W 080°07'0 0.0
2018-Jul-12 12:00N 26°07' W 080°07'0 0.0
2018-Jul-12 11:30N 26°07' W 080°07'0 0.0
2018-Jul-12 11:00N 26°07' W 080°07'0 0.0
2018-Jul-12 10:30N 26°07' W 080°07'0 0.0
2018-Jul-12 10:00N 26°07' W 080°07'0 0.0
2018-Jul-12 09:30N 26°07' W 080°07'0 0.0
2018-Jul-12 09:00N 26°07' W 080°07'0 0.0
2018-Jul-12 08:30N 26°07' W 080°07'0 0.0
2018-Jul-12 08:00N 26°07' W 080°07'0 0.0
2018-Jul-12 07:30N 26°07' W 080°07'0 0.0
2018-Jul-12 07:00N 26°07' W 080°07'0 0.0
2018-Jul-12 06:30N 26°07' W 080°07'0 0.0
2018-Jul-12 06:00N 26°07' W 080°07'0 0.0
2018-Jul-12 05:30N 26°07' W 080°07'0 0.0
2018-Jul-12 04:59N 26°07' W 080°07'0 0.0
2018-Jul-12 04:30N 26°07' W 080°07'0 0.0
2018-Jul-12 04:00N 26°07' W 080°07'0 0.0
2018-Jul-12 03:30N 26°07' W 080°07'0 0.0
2018-Jul-12 03:00N 26°07' W 080°07'0 0.0
2018-Jul-12 02:30N 26°07' W 080°07'0 0.0
2018-Jul-12 02:00N 26°07' W 080°07'0 0.0
2018-Jul-12 01:30N 26°07' W 080°07'0 0.0
2018-Jul-12 01:00N 26°07' W 080°07'0 0.0
2018-Jul-12 00:30N 26°07' W 080°07'0 0.0
2018-Jul-12 00:00N 26°07' W 080°07'0 0.0
2018-Jul-11 23:26N 26°07' W 080°07'0 0.0
2018-Jul-11 23:00N 26°07' W 080°07'0 0.0
2018-Jul-11 22:30N 26°07' W 080°07'0 0.0
2018-Jul-11 22:00N 26°07' W 080°07'0 0.0
2018-Jul-11 21:30N 26°07' W 080°07'0 0.0
2018-Jul-11 21:00N 26°07' W 080°07'0 0.0
2018-Jul-11 20:30N 26°07' W 080°07'0 0.0
2018-Jul-11 20:00N 26°07' W 080°07'0 0.0
2018-Jul-11 19:30N 26°07' W 080°07'0 0.0
2018-Jul-11 19:00N 26°07' W 080°07'0 0.0
2018-Jul-11 18:30N 26°07' W 080°07'0 0.0
2018-Jul-11 18:00N 26°07' W 080°07'0 0.0
2018-Jul-11 17:30N 26°07' W 080°07'0 0.0
2018-Jul-11 17:00N 26°07' W 080°07'0 0.0
2018-Jul-11 16:30N 26°07' W 080°07'0 0.0
2018-Jul-11 15:59N 26°07' W 080°07'0 0.0
2018-Jul-11 15:30N 26°07' W 080°07'0 0.0
2018-Jul-11 15:00N 26°07' W 080°07'0 0.0
2018-Jul-11 14:30N 26°07' W 080°07'0 0.0
2018-Jul-11 14:00N 26°07' W 080°07'0 0.0
2018-Jul-11 13:30N 26°07' W 080°07'0 0.0
2018-Jul-11 13:00N 26°07' W 080°07'0 0.0
2018-Jul-11 12:30N 26°07' W 080°07'0 0.0
2018-Jul-11 12:00N 26°07' W 080°07'0 0.0
2018-Jul-11 11:30N 26°07' W 080°07'0 0.0
2018-Jul-11 10:59N 26°07' W 080°07'0 0.0
2018-Jul-11 10:29N 26°07' W 080°07'0 0.0
2018-Jul-11 10:00N 26°07' W 080°07'0 0.0
2018-Jul-11 09:29N 26°07' W 080°07'0 0.0
2018-Jul-11 09:00N 26°07' W 080°07'0 0.0
2018-Jul-11 08:30N 26°07' W 080°07'0 0.0
2018-Jul-11 08:00N 26°07' W 080°07'0 0.0
2018-Jul-11 07:30N 26°07' W 080°07'0 0.0
2018-Jul-11 07:00N 26°07' W 080°07'0 0.0
2018-Jul-11 06:30N 26°07' W 080°07'0 0.0
2018-Jul-11 06:00N 26°07' W 080°07'0 0.0
2018-Jul-11 05:29N 26°07' W 080°07'0 0.0
2018-Jul-11 04:58N 26°07' W 080°07'0 0.0
2018-Jul-11 04:30N 26°07' W 080°07'0 0.0
2018-Jul-11 04:00N 26°07' W 080°07'0 0.0
2018-Jul-11 03:30N 26°07' W 080°07'0 0.0
2018-Jul-11 03:00N 26°07' W 080°07'0 0.0
2018-Jul-11 02:30N 26°07' W 080°07'0 0.0
2018-Jul-11 02:00N 26°07' W 080°07'0 0.0
2018-Jul-11 01:30N 26°07' W 080°07'0 0.0
2018-Jul-11 01:00N 26°07' W 080°07'0 0.0
2018-Jul-11 00:30N 26°07' W 080°07'0 0.0
2018-Jul-11 00:00N 26°07' W 080°07'0 0.0
2018-Jul-10 23:30N 26°07' W 080°07'0 0.0
2018-Jul-10 23:00N 26°07' W 080°07'0 0.0
2018-Jul-10 22:30N 26°07' W 080°07'0 0.0
2018-Jul-10 22:00N 26°07' W 080°07'0 0.0
2018-Jul-10 21:30N 26°07' W 080°07'0 0.0
2018-Jul-10 21:00N 26°07' W 080°07'0 0.0
2018-Jul-10 20:30N 26°07' W 080°07'0 0.0
2018-Jul-10 20:00N 26°07' W 080°07'0 0.0
2018-Jul-10 19:30N 26°07' W 080°07'0 0.0
2018-Jul-10 19:00N 26°07' W 080°07'0 0.0
2018-Jul-10 18:30N 26°07' W 080°07'0 0.0
2018-Jul-10 18:00N 26°07' W 080°07'0 0.0
2018-Jul-10 17:30N 26°07' W 080°07'0 0.0
2018-Jul-10 17:00N 26°07' W 080°07'0 0.0
2018-Jul-10 16:29N 26°07' W 080°07'0 0.0
2018-Jul-10 15:59N 26°07' W 080°07'0 0.0
2018-Jul-10 15:30N 26°07' W 080°07'0 0.0
2018-Jul-10 15:00N 26°07' W 080°07'0 0.0
2018-Jul-10 14:30N 26°07' W 080°07'0 0.0
2018-Jul-10 14:00N 26°07' W 080°07'0 0.0
2018-Jul-10 13:30N 26°07' W 080°07'0 0.0
2018-Jul-10 13:00N 26°07' W 080°07'0 0.0
2018-Jul-10 12:30N 26°07' W 080°07'0 0.0
2018-Jul-10 12:00N 26°07' W 080°07'0 0.0
2018-Jul-10 11:30N 26°07' W 080°07'0 0.0
2018-Jul-10 11:00N 26°07' W 080°07'0 0.0
2018-Jul-10 10:30N 26°07' W 080°07'0 0.0
2018-Jul-10 10:00N 26°07' W 080°07'0 0.0
2018-Jul-10 09:30N 26°07' W 080°07'0 0.0
2018-Jul-10 09:00N 26°07' W 080°07'0 0.0
2018-Jul-10 08:30N 26°07' W 080°07'0 0.0
2018-Jul-10 08:00N 26°07' W 080°07'0 0.0
2018-Jul-10 07:30N 26°07' W 080°07'0 0.0
2018-Jul-10 07:00N 26°07' W 080°07'0 0.0
2018-Jul-10 06:30N 26°07' W 080°07'0 0.0
2018-Jul-10 06:00N 26°07' W 080°07'0 0.0
2018-Jul-10 05:30N 26°07' W 080°07'0 0.0
2018-Jul-10 05:00N 26°07' W 080°07'0 0.0
2018-Jul-10 04:30N 26°07' W 080°07'0 0.0
2018-Jul-10 04:00N 26°07' W 080°07'0 0.0
2018-Jul-10 03:30N 26°07' W 080°07'0 0.0
2018-Jul-10 03:00N 26°07' W 080°07'0 0.0
2018-Jul-10 02:30N 26°07' W 080°07'0 0.0
2018-Jul-10 02:00N 26°07' W 080°07'0 0.0
2018-Jul-10 01:30N 26°07' W 080°07'0 0.0
2018-Jul-10 01:00N 26°07' W 080°07'0 0.0
2018-Jul-10 00:30N 26°07' W 080°07'0 0.0
2018-Jul-10 00:00N 26°07' W 080°07'0 0.0
2018-Jul-09 23:29N 26°07' W 080°07'0 0.0
2018-Jul-09 22:59N 26°07' W 080°07'0 0.0
2018-Jul-09 22:30N 26°07' W 080°07'0 0.0
2018-Jul-09 21:59N 26°07' W 080°07'0 0.0
2018-Jul-09 21:30N 26°07' W 080°07'0 0.0
2018-Jul-09 21:00N 26°07' W 080°07'0 0.0
2018-Jul-09 20:29N 26°07' W 080°07'0 0.0
2018-Jul-09 20:00N 26°07' W 080°07'0 0.0
2018-Jul-09 19:30N 26°07' W 080°07'0 0.0
2018-Jul-09 19:00N 26°07' W 080°07'0 0.0
2018-Jul-09 18:30N 26°07' W 080°07'0 0.0
2018-Jul-09 18:00N 26°07' W 080°07'0 0.0
2018-Jul-09 17:30N 26°07' W 080°07'0 0.0
2018-Jul-09 16:59N 26°07' W 080°07'0 0.0
2018-Jul-09 16:30N 26°07' W 080°07'0 0.0
2018-Jul-09 16:00N 26°07' W 080°07'0 0.0
2018-Jul-09 15:30N 26°07' W 080°07'0 0.0
2018-Jul-09 15:00N 26°07' W 080°07'0 0.0
2018-Jul-09 14:30N 26°07' W 080°07'0 0.0
2018-Jul-09 14:00N 26°07' W 080°07'0 0.0
2018-Jul-09 13:30N 26°07' W 080°07'0 0.0
2018-Jul-09 13:00N 26°07' W 080°07'0 0.0
2018-Jul-09 12:30N 26°07' W 080°07'0 0.0
2018-Jul-09 12:00N 26°07' W 080°07'0 0.0
2018-Jul-09 11:30N 26°07' W 080°07'0 0.0
2018-Jul-09 11:00N 26°07' W 080°07'0 0.0
2018-Jul-09 10:30N 26°07' W 080°07'0 0.0
2018-Jul-09 10:00N 26°07' W 080°07'0 0.0
2018-Jul-09 09:30N 26°07' W 080°07'0 0.0
2018-Jul-09 09:00N 26°07' W 080°07'0 0.0
2018-Jul-09 08:29N 26°07' W 080°07'0 0.0
2018-Jul-09 08:00N 26°07' W 080°07'0 0.0
2018-Jul-09 07:30N 26°07' W 080°07'0 0.0
2018-Jul-09 07:00N 26°07' W 080°07'0 0.0
2018-Jul-09 06:30N 26°07' W 080°07'0 0.0
2018-Jul-09 06:00N 26°07' W 080°07'0 0.0
2018-Jul-09 05:30N 26°07' W 080°07'0 0.0
2018-Jul-09 05:00N 26°07' W 080°07'0 0.0
2018-Jul-09 04:30N 26°07' W 080°07'0 0.0
2018-Jul-09 04:00N 26°07' W 080°07'0 0.0
2018-Jul-09 03:30N 26°07' W 080°07'0 0.0
2018-Jul-09 03:00N 26°07' W 080°07'0 0.0
2018-Jul-09 02:29N 26°07' W 080°07'0 0.0
2018-Jul-09 02:00N 26°07' W 080°07'0 0.0
2018-Jul-09 01:30N 26°07' W 080°07'0 0.0
2018-Jul-09 01:00N 26°07' W 080°07'0 0.0
2018-Jul-09 00:30N 26°07' W 080°07'0 0.0
2018-Jul-09 00:00N 26°07' W 080°07'0 0.0
2018-Jul-08 23:30N 26°07' W 080°07'0 0.0
2018-Jul-08 23:00N 26°07' W 080°07'0 0.0
2018-Jul-08 22:30N 26°07' W 080°07'0 0.0
2018-Jul-08 22:00N 26°07' W 080°07'0 0.0
2018-Jul-08 21:30N 26°07' W 080°07'0 0.0
2018-Jul-08 20:59N 26°07' W 080°07'0 0.0
2018-Jul-08 20:30N 26°07' W 080°07'0 0.0
2018-Jul-08 20:00N 26°07' W 080°07'0 0.0
2018-Jul-08 19:30N 26°07' W 080°07'0 0.0
2018-Jul-08 19:00N 26°07' W 080°07'0 0.0
2018-Jul-08 18:30N 26°07' W 080°07'0 0.0
2018-Jul-08 18:00N 26°07' W 080°07'0 0.0
2018-Jul-08 17:30N 26°07' W 080°07'0 0.0
2018-Jul-08 17:00N 26°07' W 080°07'0 0.0
2018-Jul-08 16:30N 26°07' W 080°07'0 0.0
2018-Jul-08 16:00N 26°07' W 080°07'0 0.0
2018-Jul-08 15:30N 26°07' W 080°07'0 0.0
2018-Jul-08 15:00N 26°07' W 080°07'0 0.0
2018-Jul-08 14:30N 26°07' W 080°07'0 0.0
2018-Jul-08 14:00N 26°07' W 080°07'0 0.0
2018-Jul-08 13:30N 26°07' W 080°07'0 0.0
2018-Jul-08 13:00N 26°07' W 080°07'0 0.0
2018-Jul-08 12:30N 26°07' W 080°07'0 0.0
2018-Jul-08 12:00N 26°07' W 080°07'0 0.0
2018-Jul-08 11:30N 26°07' W 080°07'0 0.0
2018-Jul-08 11:00N 26°07' W 080°07'0 0.0
2018-Jul-08 10:30N 26°07' W 080°07'0 0.0
2018-Jul-08 10:00N 26°07' W 080°07'0 0.0
2018-Jul-08 09:30N 26°07' W 080°07'0 0.0
2018-Jul-08 08:59N 26°07' W 080°07'0 0.0
2018-Jul-08 08:30N 26°07' W 080°07'0 0.0
2018-Jul-08 07:59N 26°07' W 080°07'0 0.0
2018-Jul-08 07:30N 26°07' W 080°07'0 0.0
2018-Jul-08 07:00N 26°07' W 080°07'0 0.0
2018-Jul-08 06:30N 26°07' W 080°07'0 0.0
2018-Jul-08 06:00N 26°07' W 080°07'0 0.0
2018-Jul-08 05:30N 26°07' W 080°07'0 0.0
2018-Jul-08 05:00N 26°07' W 080°07'0 0.0
2018-Jul-08 04:30N 26°07' W 080°07'0 0.0
2018-Jul-08 04:00N 26°07' W 080°07'0 0.0
2018-Jul-08 03:30N 26°07' W 080°07'0 0.0
2018-Jul-08 03:00N 26°07' W 080°07'0 0.0
2018-Jul-08 02:30N 26°07' W 080°07'0 0.0
2018-Jul-08 02:00N 26°07' W 080°07'0 0.0
2018-Jul-08 01:30N 26°07' W 080°07'0 0.0
2018-Jul-08 01:00N 26°07' W 080°07'0 0.0
2018-Jul-08 00:30N 26°07' W 080°07'0 0.0
2018-Jul-08 00:00N 26°07' W 080°07'0 0.0
2018-Jul-07 23:29N 26°07' W 080°07'0 0.0
2018-Jul-07 23:00N 26°07' W 080°07'0 0.0
2018-Jul-07 22:30N 26°07' W 080°07'0 0.0
2018-Jul-07 22:00N 26°07' W 080°07'0 0.0
2018-Jul-07 21:30N 26°07' W 080°07'0 0.0
2018-Jul-07 21:00N 26°07' W 080°07'0 0.0
2018-Jul-07 20:30N 26°07' W 080°07'0 0.0
2018-Jul-07 20:00N 26°07' W 080°07'0 0.0
2018-Jul-07 19:30N 26°07' W 080°07'0 0.0
2018-Jul-07 19:00N 26°07' W 080°07'0 0.0
2018-Jul-07 18:30N 26°07' W 080°07'0 0.0
2018-Jul-07 17:59N 26°07' W 080°07'0 0.0
2018-Jul-07 17:30N 26°07' W 080°07'0 0.0
2018-Jul-07 17:00N 26°07' W 080°07'0 0.0
2018-Jul-07 16:30N 26°07' W 080°07'0 0.0
2018-Jul-07 16:00N 26°07' W 080°07'0 0.0
2018-Jul-07 15:30N 26°07' W 080°07'0 0.0
2018-Jul-07 15:00N 26°07' W 080°07'0 0.0
2018-Jul-07 14:30N 26°07' W 080°07'0 0.0
2018-Jul-07 14:00N 26°07' W 080°07'0 0.0
2018-Jul-07 13:30N 26°07' W 080°07'0 0.0
2018-Jul-07 13:00N 26°07' W 080°07'0 0.0
2018-Jul-07 12:30N 26°07' W 080°07'0 0.0
2018-Jul-07 12:00N 26°07' W 080°07'0 0.0
2018-Jul-07 11:30N 26°07' W 080°07'0 0.0
2018-Jul-07 11:00N 26°07' W 080°07'0 0.0
2018-Jul-07 10:30N 26°07' W 080°07'0 0.0
2018-Jul-07 10:00N 26°07' W 080°07'0 0.0
2018-Jul-07 09:30N 26°07' W 080°07'0 0.0
2018-Jul-07 09:00N 26°07' W 080°07'0 0.0
2018-Jul-07 08:30N 26°07' W 080°07'0 0.0
2018-Jul-07 08:00N 26°07' W 080°07'0 0.0
2018-Jul-07 07:30N 26°07' W 080°07'0 0.0
2018-Jul-07 07:00N 26°07' W 080°07'0 0.0
2018-Jul-07 06:30N 26°07' W 080°07'0 0.0
2018-Jul-07 06:00N 26°07' W 080°07'0 0.0
2018-Jul-07 05:30N 26°07' W 080°07'0 0.0
2018-Jul-07 05:00N 26°07' W 080°07'0 0.0
2018-Jul-07 04:29N 26°07' W 080°07'0 0.0
2018-Jul-07 04:00N 26°07' W 080°07'0 0.0
2018-Jul-07 03:30N 26°07' W 080°07'0 0.0
2018-Jul-07 03:00N 26°07' W 080°07'0 0.0
2018-Jul-07 02:30N 26°07' W 080°07'0 0.0
2018-Jul-07 02:00N 26°07' W 080°07'0 0.0
2018-Jul-07 01:29N 26°07' W 080°07'0 0.0
2018-Jul-07 01:00N 26°07' W 080°07'0 0.0
2018-Jul-07 00:29N 26°07' W 080°07'0 0.0
2018-Jul-07 00:00N 26°07' W 080°07'0 0.0
2018-Jul-06 23:30N 26°07' W 080°07'0 0.0
2018-Jul-06 23:00N 26°07' W 080°07'0 0.0
2018-Jul-06 22:30N 26°07' W 080°07'0 0.0
2018-Jul-06 22:00N 26°07' W 080°07'0 0.0
2018-Jul-06 21:30N 26°07' W 080°07'0 0.0
2018-Jul-06 21:00N 26°07' W 080°07'0 0.0
2018-Jul-06 20:30N 26°07' W 080°07'0 0.0
2018-Jul-06 20:00N 26°07' W 080°07'0 0.0
2018-Jul-06 19:30N 26°07' W 080°07'0 0.1
2018-Jul-06 19:00N 26°07' W 080°07'0 0.0
2018-Jul-06 18:30N 26°07' W 080°06'0 0.0
2018-Jul-06 18:00N 26°07' W 080°06'0 0.0
2018-Jul-06 17:30N 26°07' W 080°06'0 0.0
2018-Jul-06 17:00N 26°07' W 080°06'0 0.0
2018-Jul-06 16:30N 26°07' W 080°06'0 0.0
2018-Jul-06 16:00N 26°07' W 080°06'0 0.0
2018-Jul-06 15:29N 26°07' W 080°06'0 0.0
2018-Jul-06 14:59N 26°07' W 080°06'0 0.0
2018-Jul-06 14:30N 26°07' W 080°06'0 0.0
2018-Jul-06 14:00N 26°07' W 080°06'0 0.0
2018-Jul-06 13:30N 26°07' W 080°06'0 0.0
2018-Jul-06 13:00N 26°07' W 080°06'0 0.0
2018-Jul-06 12:30N 26°07' W 080°06'0 0.0
2018-Jul-06 12:00N 26°07' W 080°06'0 0.0
2018-Jul-06 11:30N 26°07' W 080°06'0 0.0
2018-Jul-06 11:00N 26°07' W 080°06'0 0.0
2018-Jul-06 10:30N 26°07' W 080°06'0 0.0
2018-Jul-06 10:00N 26°07' W 080°06'0 0.0
2018-Jul-06 09:30N 26°07' W 080°06'0 0.0
2018-Jul-06 09:00N 26°07' W 080°06'0 0.0
2018-Jul-06 08:30N 26°07' W 080°06'0 0.0
2018-Jul-06 08:00N 26°07' W 080°06'0 0.0
2018-Jul-06 07:30N 26°07' W 080°06'0 0.0
2018-Jul-06 07:00N 26°07' W 080°06'0 0.0
2018-Jul-06 06:30N 26°07' W 080°06'0 0.0
2018-Jul-06 06:00N 26°07' W 080°06'0 0.0
2018-Jul-06 05:30N 26°07' W 080°06'0 0.0
2018-Jul-06 05:00N 26°07' W 080°06'0 0.0
2018-Jul-06 04:30N 26°07' W 080°06'0 0.0
2018-Jul-06 04:00N 26°07' W 080°06'0 0.0
2018-Jul-06 03:30N 26°07' W 080°06'0 0.0
2018-Jul-06 03:00N 26°07' W 080°06'0 0.0
2018-Jul-06 02:30N 26°07' W 080°06'0 0.0
2018-Jul-06 02:00N 26°07' W 080°06'0 0.0
2018-Jul-06 01:30N 26°07' W 080°06'0 0.0
2018-Jul-06 01:00N 26°07' W 080°06'0 0.0
2018-Jul-06 00:30N 26°07' W 080°06'0 0.0
2018-Jul-06 00:00N 26°07' W 080°06'0 0.0
2018-Jul-05 23:30N 26°07' W 080°06'0 0.0
2018-Jul-05 23:00N 26°07' W 080°06'0 0.0
2018-Jul-05 22:30N 26°07' W 080°06'0 0.0
2018-Jul-05 22:00N 26°07' W 080°06'0 0.0
2018-Jul-05 21:30N 26°07' W 080°06'0 0.0
2018-Jul-05 21:00N 26°07' W 080°06'0 0.0
2018-Jul-05 20:30N 26°07' W 080°06'0 0.0
2018-Jul-05 20:00N 26°07' W 080°06'0 0.0
2018-Jul-05 19:30N 26°07' W 080°06'0 0.0
2018-Jul-05 19:00N 26°07' W 080°06'0 0.0
2018-Jul-05 18:30N 26°07' W 080°06'0 0.0
2018-Jul-05 17:59N 26°07' W 080°06'0 0.0
2018-Jul-05 17:30N 26°07' W 080°06'0 0.0
2018-Jul-05 17:00N 26°07' W 080°06'0 0.0
2018-Jul-05 16:29N 26°07' W 080°06'0 0.0
2018-Jul-05 16:00N 26°07' W 080°06'0 0.0
2018-Jul-05 15:30N 26°07' W 080°06'0 0.0
2018-Jul-05 15:00N 26°07' W 080°06'0 0.0
2018-Jul-05 14:00N 26°07' W 080°06'0 0.0
2018-Jul-05 13:30N 26°07' W 080°06'0 0.0
2018-Jul-05 13:00N 26°07' W 080°06'0 0.0
2018-Jul-05 12:30N 26°07' W 080°06'0 0.0
2018-Jul-05 11:59N 26°07' W 080°06'0 0.0
2018-Jul-05 11:30N 26°07' W 080°06'0 0.0
2018-Jul-05 11:00N 26°07' W 080°06'0 0.0
2018-Jul-05 10:30N 26°07' W 080°06'0 0.0
2018-Jul-05 10:00N 26°07' W 080°06'0 0.0
2018-Jul-05 09:30N 26°07' W 080°06'0 0.0
2018-Jul-05 09:00N 26°07' W 080°06'0 0.0
2018-Jul-05 08:30N 26°07' W 080°06'0 0.0
2018-Jul-05 08:00N 26°07' W 080°06'0 0.0
2018-Jul-05 07:30N 26°07' W 080°06'0 0.0
2018-Jul-05 06:59N 26°07' W 080°06'0 0.0
2018-Jul-05 06:30N 26°07' W 080°06'0 0.0
2018-Jul-05 06:00N 26°07' W 080°06'0 0.0
2018-Jul-05 05:30N 26°07' W 080°06'0 0.0
2018-Jul-05 05:00N 26°07' W 080°06'0 0.0
2018-Jul-05 04:30N 26°07' W 080°06'0 0.0
2018-Jul-05 04:00N 26°07' W 080°06'0 0.0
2018-Jul-05 03:30N 26°07' W 080°06'0 0.0
2018-Jul-05 03:00N 26°07' W 080°06'0 0.0
2018-Jul-05 02:30N 26°07' W 080°06'0 0.0
2018-Jul-05 01:59N 26°07' W 080°06'0 0.0
2018-Jul-05 01:30N 26°07' W 080°06'0 0.0
2018-Jul-05 01:00N 26°07' W 080°06'0 0.0
2018-Jul-05 00:30N 26°07' W 080°06'0 0.0
2018-Jul-05 00:00N 26°07' W 080°06'0 0.0
2018-Jul-04 23:30N 26°07' W 080°06'0 0.0
2018-Jul-04 23:00N 26°07' W 080°06'0 0.0
2018-Jul-04 22:30N 26°07' W 080°06'0 0.0
2018-Jul-04 22:00N 26°07' W 080°06'0 0.0
2018-Jul-04 21:30N 26°07' W 080°06'0 0.0
2018-Jul-04 21:00N 26°07' W 080°06'0 0.0
2018-Jul-04 20:30N 26°07' W 080°06'0 0.0
2018-Jul-04 20:00N 26°07' W 080°06'0 0.0
2018-Jul-04 19:30N 26°07' W 080°06'0 0.0
2018-Jul-04 19:00N 26°07' W 080°06'0 0.0
2018-Jul-04 18:30N 26°07' W 080°06'0 0.0
2018-Jul-04 18:00N 26°07' W 080°06'0 0.0
2018-Jul-04 17:30N 26°07' W 080°06'0 0.0
2018-Jul-04 17:00N 26°07' W 080°06'0 0.0
2018-Jul-04 16:30N 26°07' W 080°06'0 0.0
2018-Jul-04 16:00N 26°07' W 080°06'0 0.0
2018-Jul-04 15:30N 26°07' W 080°06'0 0.0
2018-Jul-04 15:00N 26°07' W 080°06'0 0.0
2018-Jul-04 14:30N 26°07' W 080°06'0 0.0
2018-Jul-04 14:00N 26°07' W 080°06'0 0.0
2018-Jul-04 13:30N 26°07' W 080°06'0 0.0
2018-Jul-04 13:00N 26°07' W 080°06'0 0.0
2018-Jul-04 12:30N 26°07' W 080°06'0 0.0
2018-Jul-04 12:00N 26°07' W 080°06'0 0.0
2018-Jul-04 11:30N 26°07' W 080°06'0 0.0
2018-Jul-04 11:00N 26°07' W 080°06'0 0.0
2018-Jul-04 10:30N 26°07' W 080°06'0 0.0
2018-Jul-04 10:00N 26°07' W 080°06'0 0.0
2018-Jul-04 09:30N 26°07' W 080°06'0 0.0
2018-Jul-04 09:00N 26°07' W 080°06'0 0.0
2018-Jul-04 08:30N 26°07' W 080°06'0 0.0
2018-Jul-04 08:00N 26°07' W 080°06'0 0.0
2018-Jul-04 07:30N 26°07' W 080°06'0 0.0
2018-Jul-04 07:00N 26°07' W 080°06'0 0.0
2018-Jul-04 06:28N 26°07' W 080°06'0 0.0
2018-Jul-04 05:59N 26°07' W 080°06'0 0.0
2018-Jul-04 05:30N 26°07' W 080°06'0 0.0
2018-Jul-04 05:00N 26°07' W 080°06'0 0.0
2018-Jul-04 04:30N 26°07' W 080°06'0 0.0
2018-Jul-04 04:00N 26°07' W 080°06'0 0.0
2018-Jul-04 03:30N 26°07' W 080°06'0 0.0
2018-Jul-04 03:00N 26°07' W 080°06'0 0.0
2018-Jul-04 02:30N 26°07' W 080°06'0 0.0
2018-Jul-04 02:00N 26°07' W 080°06'0 0.0
2018-Jul-04 01:30N 26°07' W 080°06'0 0.0
2018-Jul-04 01:00N 26°07' W 080°06'0 0.0
2018-Jul-04 00:30N 26°07' W 080°06'0 0.0
2018-Jul-04 00:00N 26°07' W 080°06'0 0.0
2018-Jul-03 23:30N 26°07' W 080°06'0 0.0
2018-Jul-03 22:59N 26°07' W 080°06'0 0.0
2018-Jul-03 22:30N 26°07' W 080°06'0 0.0
2018-Jul-03 22:00N 26°07' W 080°06'0 0.0
2018-Jul-03 21:30N 26°07' W 080°06'0 0.0
2018-Jul-03 21:00N 26°07' W 080°06'0 0.0
2018-Jul-03 20:30N 26°07' W 080°06'0 0.0
2018-Jul-03 20:00N 26°07' W 080°06'0 0.0
2018-Jul-03 19:30N 26°07' W 080°06'0 0.0
2018-Jul-03 19:00N 26°07' W 080°06'0 0.0
2018-Jul-03 18:30N 26°07' W 080°06'0 0.0
2018-Jul-03 18:00N 26°07' W 080°06'0 0.0
2018-Jul-03 17:30N 26°07' W 080°06'0 0.0
2018-Jul-03 17:00N 26°07' W 080°06'0 0.0
2018-Jul-03 16:30N 26°07' W 080°06'0 0.0
2018-Jul-03 16:00N 26°07' W 080°06'0 0.0
2018-Jul-03 15:30N 26°07' W 080°06'0 0.0
2018-Jul-03 15:00N 26°07' W 080°06'0 0.0
2018-Jul-03 14:30N 26°07' W 080°06'0 0.0
2018-Jul-03 14:00N 26°07' W 080°06'0 0.0
2018-Jul-03 13:30N 26°07' W 080°06'0 0.0
2018-Jul-03 13:00N 26°07' W 080°06'  

Dump ship's entire track history